createdAt,value
2017-10-28T00:00:52.717Z,87.21
2017-10-28T00:02:03.208Z,87.6
2017-10-28T00:03:13.314Z,87.4
2017-10-28T00:04:23.115Z,87.5
2017-10-28T00:05:33.315Z,87.69
2017-10-28T00:06:43.101Z,87.5
2017-10-28T00:07:53.695Z,87.88
2017-10-28T00:09:03.855Z,87.79
2017-10-28T00:10:14.324Z,87.69
2017-10-28T00:11:24.590Z,87.79
2017-10-28T00:12:35.097Z,87.69
2017-10-28T00:13:45.213Z,87.79
2017-10-28T00:14:54.814Z,88.07
2017-10-28T00:16:04.674Z,87.69
2017-10-28T00:17:15.073Z,87.69
2017-10-28T00:18:25.349Z,87.79
2017-10-28T00:19:34.745Z,87.79
2017-10-28T00:20:43.463Z,87.69
2017-10-28T00:21:53.581Z,87.6
2017-10-28T00:23:03.743Z,87.79
2017-10-28T00:24:13.483Z,87.79
2017-10-28T00:25:22.991Z,87.69
2017-10-28T00:26:33.064Z,87.79
2017-10-28T00:27:43.489Z,87.6
2017-10-28T00:28:53.681Z,87.5
2017-10-28T00:30:03.833Z,87.6
2017-10-28T00:31:13.930Z,88.36
2017-10-28T00:32:23.472Z,89.03
2017-10-28T00:33:33.279Z,88.64
2017-10-28T00:34:43.039Z,89.31
2017-10-28T00:35:53.198Z,89.03
2017-10-28T00:37:03.304Z,89.4
2017-10-28T00:38:13.369Z,90.26
2017-10-28T00:39:23.817Z,90.08
2017-10-28T00:40:33.948Z,89.5
2017-10-28T00:41:42.998Z,89.89
2017-10-28T00:42:52.433Z,89.31
2017-10-28T00:44:02.524Z,89.69
2017-10-28T00:45:12.582Z,89.6
2017-10-28T00:46:22.376Z,90.08
2017-10-28T00:47:32.910Z,90.03
2017-10-28T00:48:42.957Z,89.65
2017-10-28T00:49:52.434Z,90.22
2017-10-28T00:51:02.134Z,90.31
2017-10-28T00:52:11.814Z,90.7
2017-10-28T00:53:22.155Z,90.31
2017-10-28T00:54:31.840Z,90.5
2017-10-28T00:55:41.851Z,91.08
2017-10-28T00:56:51.535Z,90.6
2017-10-28T00:58:01.218Z,90.79
2017-10-28T00:59:11.228Z,91.46
2017-10-28T01:00:21.590Z,90.98
2017-10-28T01:01:31.627Z,90.98
2017-10-28T01:02:40.309Z,91.36
2017-10-28T01:03:50.333Z,90.6
2017-10-28T01:05:00.361Z,90.98
2017-10-28T01:06:10.386Z,91.55
2017-10-28T01:07:20.735Z,90.79
2017-10-28T01:08:30.445Z,90.98
2017-10-28T01:09:40.474Z,90.79
2017-10-28T01:10:50.503Z,90.79
2017-10-28T01:12:00.519Z,90.31
2017-10-28T01:13:10.201Z,90.41
2017-10-28T01:14:20.550Z,90.5
2017-10-28T01:15:30.246Z,90.12
2017-10-28T01:16:39.591Z,90.6
2017-10-28T01:17:49.274Z,90.12
2017-10-28T01:18:59.304Z,90.22
2017-10-28T01:20:09.000Z,89.84
2017-10-28T01:21:18.707Z,90.03
2017-10-28T01:22:28.076Z,89.65
2017-10-28T01:23:38.443Z,90.41
2017-10-28T01:24:47.792Z,89.84
2017-10-28T01:25:58.154Z,89.17
2017-10-28T01:27:07.505Z,89.55
2017-10-28T01:28:17.186Z,89.07
2017-10-28T01:29:26.867Z,89.65
2017-10-28T01:30:36.878Z,89.17
2017-10-28T01:31:46.221Z,89.4
2017-10-28T01:32:55.893Z,88.84
2017-10-28T01:34:06.240Z,88.84
2017-10-28T01:35:16.253Z,88.84
2017-10-28T01:36:26.272Z,88.6
2017-10-28T01:37:35.950Z,89.03
2017-10-28T01:38:45.286Z,88.6
2017-10-28T01:39:55.295Z,88.74
2017-10-28T01:41:04.638Z,88.89
2017-10-28T01:42:14.327Z,88.89
2017-10-28T01:43:23.999Z,88.79
2017-10-28T01:44:34.015Z,88.98
2017-10-28T01:45:43.354Z,88.31
2017-10-28T01:46:53.365Z,88.79
2017-10-28T01:48:03.704Z,89.03
2017-10-28T01:49:13.724Z,88.89
2017-10-28T01:50:23.071Z,88.6
2017-10-28T01:51:32.745Z,89.26
2017-10-28T01:52:42.757Z,88.84
2017-10-28T01:53:52.431Z,88.98
2017-10-28T01:55:02.784Z,88.7
2017-10-28T01:56:12.463Z,88.93
2017-10-28T01:57:22.141Z,88.55
2017-10-28T01:58:32.487Z,88.84
2017-10-28T01:59:42.157Z,88.36
2017-10-28T02:00:51.832Z,88.45
2017-10-28T02:02:02.175Z,88.45
2017-10-28T02:03:12.191Z,88.55
2017-10-28T02:04:21.867Z,88.84
2017-10-28T02:05:31.208Z,88.84
2017-10-28T02:06:40.886Z,88.45
2017-10-28T02:07:50.888Z,88.55
2017-10-28T02:09:00.900Z,88.26
2017-10-28T02:10:10.576Z,88.36
2017-10-28T02:11:19.914Z,88.55
2017-10-28T02:12:29.925Z,88.55
2017-10-28T02:13:39.598Z,88.36
2017-10-28T02:14:49.614Z,88.17
2017-10-28T02:15:59.969Z,88.55
2017-10-28T02:17:08.974Z,88.84
2017-10-28T02:18:19.001Z,88.64
2017-10-28T02:19:29.021Z,88.36
2017-10-28T02:20:39.365Z,88.55
2017-10-28T02:21:49.370Z,88.45
2017-10-28T02:22:59.716Z,88.55
2017-10-28T02:24:09.390Z,88.36
2017-10-28T02:25:19.732Z,88.55
2017-10-28T02:26:30.105Z,88.45
2017-10-28T02:27:40.312Z,88.45
2017-10-28T02:28:50.659Z,88.17
2017-10-28T02:30:00.678Z,88.45
2017-10-28T02:31:10.729Z,88.79
2017-10-28T02:32:20.405Z,88.89
2017-10-28T02:33:30.082Z,89.17
2017-10-28T02:34:39.755Z,89.07
2017-10-28T02:35:49.764Z,88.89
2017-10-28T02:36:59.446Z,89.36
2017-10-28T02:38:09.471Z,88.79
2017-10-28T02:39:18.821Z,88.7
2017-10-28T02:40:29.190Z,89.07
2017-10-28T02:41:39.533Z,88.6
2017-10-28T02:45:08.704Z,89.46
2017-10-28T02:46:18.731Z,88.98
2017-10-28T02:47:29.118Z,89.07
2017-10-28T02:48:39.127Z,88.51
2017-10-28T02:49:49.143Z,88.98
2017-10-28T02:50:59.499Z,88.51
2017-10-28T02:52:09.513Z,88.7
2017-10-28T02:53:19.867Z,88.7
2017-10-28T02:54:29.209Z,88.7
2017-10-28T02:55:39.243Z,88.89
2017-10-28T02:56:49.265Z,89.17
2017-10-28T02:57:59.682Z,89.26
2017-10-28T02:59:09.375Z,89.07
2017-10-28T03:00:19.395Z,88.98
2017-10-28T03:01:29.087Z,89.07
2017-10-28T03:02:38.795Z,89.46
2017-10-28T03:03:48.512Z,89.65
2017-10-28T03:04:57.857Z,89.36
2017-10-28T03:06:07.542Z,89.17
2017-10-28T03:07:17.891Z,89.36
2017-10-28T03:08:27.577Z,89.36
2017-10-28T03:09:37.593Z,89.65
2017-10-28T03:10:47.608Z,89.36
2017-10-28T03:11:56.957Z,88.79
2017-10-28T03:13:07.097Z,89.26
2017-10-28T03:14:17.232Z,88.98
2017-10-28T03:15:27.248Z,89.75
2017-10-28T03:16:36.919Z,89.84
2017-10-28T03:17:47.276Z,89.46
2017-10-28T03:18:57.676Z,89.55
2017-10-28T03:20:07.360Z,89.07
2017-10-28T03:21:17.043Z,89.17
2017-10-28T03:22:27.397Z,89.65
2017-10-28T03:23:37.409Z,89.26
2017-10-28T03:24:46.415Z,89.46
2017-10-28T03:25:56.095Z,89.46
2017-10-28T03:27:05.772Z,89.55
2017-10-28T03:28:15.781Z,89.79
2017-10-28T03:29:25.462Z,89.61
2017-10-28T03:30:35.482Z,90.31
2017-10-28T03:31:44.490Z,90.17
2017-10-28T03:32:54.502Z,90.17
2017-10-28T03:34:04.179Z,89.98
2017-10-28T03:35:13.867Z,90.17
2017-10-28T03:36:23.545Z,90.65
2017-10-28T03:37:33.558Z,90.65
2017-10-28T03:38:43.240Z,90.46
2017-10-28T03:39:52.914Z,90.56
2017-10-28T03:41:02.593Z,90.75
2017-10-28T03:42:11.936Z,91.03
2017-10-28T03:43:21.949Z,91.13
2017-10-28T03:44:31.971Z,91.13
2017-10-28T03:45:41.654Z,91.41
2017-10-28T03:46:51.662Z,91.41
2017-10-28T03:48:01.676Z,91.41
2017-10-28T03:49:11.364Z,91.41
2017-10-28T03:50:21.379Z,91.41
2017-10-28T03:51:31.401Z,91.79
2017-10-28T03:52:41.754Z,91.31
2017-10-28T03:53:51.429Z,91.79
2017-10-28T03:55:01.111Z,92.27
2017-10-28T03:56:11.118Z,92.18
2017-10-28T03:57:20.459Z,92.46
2017-10-28T03:58:30.811Z,91.89
2017-10-28T03:59:41.158Z,92.46
2017-10-28T04:00:50.838Z,92.27
2017-10-28T04:02:01.190Z,92.65
2017-10-28T04:03:11.569Z,92.36
2017-10-28T04:04:21.581Z,92.55
2017-10-28T04:05:31.594Z,92.74
2017-10-28T04:06:41.272Z,92.94
2017-10-28T04:07:50.948Z,93.32
2017-10-28T04:09:00.960Z,93.37
2017-10-28T04:10:11.306Z,93.08
2017-10-28T04:11:20.313Z,93.08
2017-10-28T04:12:30.322Z,93.22
2017-10-28T04:13:40.001Z,92.99
2017-10-28T04:14:50.009Z,92.99
2017-10-28T04:16:00.353Z,93.46
2017-10-28T04:17:10.032Z,93.51
2017-10-28T04:18:19.381Z,92.99
2017-10-28T04:19:29.725Z,93.27
2017-10-28T04:20:39.745Z,93.18
2017-10-28T04:21:49.766Z,92.99
2017-10-28T04:22:59.774Z,92.89
2017-10-28T04:24:09.122Z,93.18
2017-10-28T04:25:19.134Z,93.65
2017-10-28T04:26:28.472Z,93.18
2017-10-28T04:27:38.493Z,93.27
2017-10-28T04:28:48.506Z,93.08
2017-10-28T04:29:58.514Z,92.89
2017-10-28T04:31:08.232Z,93.18
2017-10-28T04:32:17.909Z,93.27
2017-10-28T04:33:28.264Z,92.89
2017-10-28T04:34:38.277Z,92.22
2017-10-28T04:35:48.635Z,92.03
2017-10-28T04:36:58.649Z,92.41
2017-10-28T04:38:08.324Z,91.94
2017-10-28T04:39:18.336Z,91.84
2017-10-28T04:40:27.671Z,91.79
2017-10-28T04:41:38.019Z,91.6
2017-10-28T04:42:48.033Z,90.94
2017-10-28T04:43:57.716Z,90.94
2017-10-28T04:45:08.069Z,91.13
2017-10-28T04:46:18.137Z,90.99
2017-10-28T04:47:28.150Z,91.22
2017-10-28T04:48:37.824Z,90.65
2017-10-28T04:49:47.836Z,91.03
2017-10-28T04:50:58.185Z,90.84
2017-10-28T04:52:08.212Z,90.94
2017-10-28T04:53:17.615Z,90.84
2017-10-28T04:54:27.203Z,90.27
2017-10-28T04:55:37.298Z,90.27
2017-10-28T04:56:47.643Z,90.36
2017-10-28T04:57:57.657Z,90.08
2017-10-28T04:59:07.330Z,90.08
2017-10-28T05:00:17.338Z,90.08
2017-10-28T05:01:27.693Z,89.79
2017-10-28T05:02:37.029Z,89.7
2017-10-28T05:03:46.710Z,89.22
2017-10-28T05:04:56.047Z,89.41
2017-10-28T05:06:05.721Z,89.41
2017-10-28T05:07:15.431Z,89.32
2017-10-28T05:08:25.147Z,89.41
2017-10-28T05:09:35.171Z,89.61
2017-10-28T05:10:44.848Z,89.79
2017-10-28T05:11:54.856Z,89.61
2017-10-28T05:13:04.868Z,89.41
2017-10-28T05:14:14.553Z,89.79
2017-10-28T05:15:24.581Z,89.79
2017-10-28T05:16:34.599Z,89.98
2017-10-28T05:17:44.348Z,90.56
2017-10-28T05:18:54.829Z,90.36
2017-10-28T05:20:04.845Z,90.08
2017-10-28T05:21:14.188Z,90.84
2017-10-28T05:22:23.879Z,90.46
2017-10-28T05:23:34.232Z,90.94
2017-10-28T05:24:44.620Z,90.65
2017-10-28T05:25:54.301Z,91.13
2017-10-28T05:27:03.645Z,90.94
2017-10-28T05:28:13.659Z,91.6
2017-10-28T05:29:23.353Z,91.27
2017-10-28T05:30:32.343Z,91.94
2017-10-28T05:31:41.344Z,91.84
2017-10-28T05:32:50.693Z,91.75
2017-10-28T05:34:00.430Z,91.46
2017-10-28T05:35:10.543Z,91.56
2017-10-28T05:36:20.890Z,92.03
2017-10-28T05:37:30.232Z,92.22
2017-10-28T05:38:39.913Z,91.99
2017-10-28T05:39:50.274Z,91.37
2017-10-28T05:40:59.657Z,91.75
2017-10-28T05:42:10.005Z,91.51
2017-10-28T05:43:19.347Z,91.51
2017-10-28T05:44:29.356Z,91.13
2017-10-28T05:45:38.985Z,91.03
2017-10-28T05:46:48.993Z,91.7
2017-10-28T05:47:58.677Z,91.41
2017-10-28T05:49:08.693Z,91.56
2017-10-28T05:50:18.364Z,91.13
2017-10-28T05:51:28.393Z,91.08
2017-10-28T05:52:38.739Z,91.56
2017-10-28T05:53:48.081Z,91.27
2017-10-28T05:54:58.096Z,91.65
2017-10-28T05:56:08.113Z,90.89
2017-10-28T05:57:18.142Z,91.41
2017-10-28T05:58:28.485Z,90.65
2017-10-28T05:59:38.165Z,90.75
2017-10-28T06:00:48.527Z,90.56
2017-10-28T06:01:58.673Z,90.94
2017-10-28T06:03:08.014Z,90.46
2017-10-28T06:04:17.687Z,90.75
2017-10-28T06:05:27.365Z,90.65
2017-10-28T06:06:37.041Z,90.84
2017-10-28T06:07:46.730Z,90.27
2017-10-28T06:08:55.736Z,90.94
2017-10-28T06:10:05.749Z,90.56
2017-10-28T06:11:16.097Z,90.27
2017-10-28T06:12:25.786Z,90.65
2017-10-28T06:13:35.491Z,90.36
2017-10-28T06:14:45.510Z,90.75
2017-10-28T06:15:55.526Z,90.75
2017-10-28T06:17:05.212Z,90.56
2017-10-28T06:18:14.886Z,90.27
2017-10-28T06:19:25.267Z,89.79
2017-10-28T06:20:34.274Z,89.61
2017-10-28T06:21:43.611Z,89.7
2017-10-28T06:22:52.954Z,90.17
2017-10-28T06:24:02.635Z,89.89
2017-10-28T06:25:12.990Z,89.51
2017-10-28T06:26:22.333Z,89.51
2017-10-28T06:27:32.352Z,89.7
2017-10-28T06:28:42.032Z,89.41
2017-10-28T06:29:51.715Z,89.61
2017-10-28T06:31:01.396Z,89.41
2017-10-28T06:32:10.739Z,88.93
2017-10-28T06:33:20.753Z,88.56
2017-10-28T06:34:30.091Z,89.22
2017-10-28T06:35:40.119Z,88.84
2017-10-28T06:36:50.133Z,88.65
2017-10-28T06:37:59.471Z,88.93
2017-10-28T06:39:09.496Z,88.84
2017-10-28T06:40:18.509Z,88.84
2017-10-28T06:41:28.525Z,88.56
2017-10-28T06:42:37.534Z,88.08
2017-10-28T06:43:47.236Z,88.27
2017-10-28T06:44:56.910Z,88.56
2017-10-28T06:46:06.587Z,88.18
2017-10-28T06:47:16.600Z,88.37
2017-10-28T06:48:26.621Z,88.37
2017-10-28T06:49:36.979Z,88.37
2017-10-28T06:50:47.349Z,88.18
2017-10-28T06:51:56.695Z,87.51
2017-10-28T06:53:07.048Z,87.89
2017-10-28T06:54:16.425Z,87.51
2017-10-28T06:55:25.764Z,87.41
2017-10-28T06:56:35.467Z,87.7
2017-10-28T06:57:45.500Z,87.7
2017-10-28T06:58:54.509Z,87.7
2017-10-28T07:00:03.851Z,87.41
2017-10-28T07:01:13.883Z,87.13
2017-10-28T07:02:24.236Z,87.46
2017-10-28T07:03:33.920Z,87.36
2017-10-28T07:04:43.934Z,87.03
2017-10-28T07:05:53.295Z,86.6
2017-10-28T07:07:02.973Z,86.79
2017-10-28T07:08:13.321Z,86.32
2017-10-28T07:09:22.665Z,85.84
2017-10-28T07:10:33.013Z,85.74
2017-10-28T07:11:42.691Z,86.03
2017-10-28T07:12:52.703Z,85.84
2017-10-28T07:14:02.108Z,85.17
2017-10-28T07:15:11.802Z,85.55
2017-10-28T07:16:21.143Z,85.46
2017-10-28T07:17:31.156Z,85.64
2017-10-28T07:18:41.170Z,85.46
2017-10-28T07:19:51.177Z,85.55
2017-10-28T07:21:00.895Z,85.64
2017-10-28T07:22:10.871Z,84.6
2017-10-28T07:23:20.216Z,84.6
2017-10-28T07:24:30.240Z,84.88
2017-10-28T07:25:39.947Z,85.08
2017-10-28T07:26:49.629Z,84.6
2017-10-28T07:27:59.692Z,84.22
2017-10-28T07:29:09.711Z,84.6
2017-10-28T07:30:19.397Z,84.79
2017-10-28T07:31:29.407Z,84.88
2017-10-28T07:32:39.756Z,84.79
2017-10-28T07:33:49.096Z,84.79
2017-10-28T07:34:58.785Z,84.31
2017-10-28T07:36:09.146Z,84.41
2017-10-28T07:37:18.823Z,84.6
2017-10-28T07:38:28.507Z,84.69
2017-10-28T07:39:38.185Z,84.5
2017-10-28T07:40:47.893Z,84.69
2017-10-28T07:41:57.917Z,83.45
2017-10-28T07:43:07.984Z,84.22
2017-10-28T07:44:17.665Z,84.41
2017-10-28T07:45:28.009Z,84.5
2017-10-28T07:46:38.360Z,84.31
2017-10-28T07:47:48.373Z,83.74
2017-10-28T07:48:58.050Z,84.03
2017-10-28T07:50:08.068Z,84.22
2017-10-28T07:51:18.085Z,83.65
2017-10-28T07:52:27.825Z,84.12
2017-10-28T07:53:37.170Z,84.6
2017-10-28T07:54:47.520Z,84.6
2017-10-28T07:55:57.195Z,84.6
2017-10-28T07:57:07.217Z,84.5
2017-10-28T07:58:17.234Z,84.69
2017-10-28T07:59:26.918Z,84.31
2017-10-28T08:00:35.593Z,84.22
2017-10-28T08:01:45.628Z,84.12
2017-10-28T08:02:55.366Z,84.31
2017-10-28T08:04:05.750Z,84.31
2017-10-28T08:05:15.789Z,83.93
2017-10-28T08:06:25.469Z,84.12
2017-10-28T08:07:35.501Z,84.12
2017-10-28T08:08:45.533Z,83.45
2017-10-28T08:09:55.211Z,83.17
2017-10-28T08:11:04.560Z,83.07
2017-10-28T08:12:14.255Z,83.21
2017-10-28T08:13:24.613Z,82.54
2017-10-28T08:14:34.295Z,82.73
2017-10-28T08:15:43.972Z,82.45
2017-10-28T08:16:53.979Z,82.54
2017-10-28T08:18:03.658Z,82.73
2017-10-28T08:19:13.003Z,82.64
2017-10-28T08:20:22.053Z,82.35
2017-10-28T08:21:32.501Z,82.17
2017-10-28T08:22:41.992Z,82.73
2017-10-28T08:23:52.046Z,82.73
2017-10-28T08:25:02.309Z,82.54
2017-10-28T08:26:12.135Z,82.92
2017-10-28T08:27:21.883Z,83.21
2017-10-28T08:28:31.435Z,83.36
2017-10-28T08:29:41.245Z,83.5
2017-10-28T08:30:50.982Z,84.31
2017-10-28T08:32:01.219Z,84.12
2017-10-28T08:33:11.709Z,84.03
2017-10-28T08:34:21.762Z,84.31
2017-10-28T08:35:32.032Z,83.17
2017-10-28T08:36:42.556Z,83.12
2017-10-28T08:37:51.998Z,82.92
2017-10-28T08:39:02.579Z,83.12
2017-10-28T08:40:12.342Z,83.31
2017-10-28T08:41:21.667Z,82.73
2017-10-28T08:42:32.031Z,82.83
2017-10-28T08:43:41.383Z,82.92
2017-10-28T08:44:50.771Z,83.12
2017-10-28T08:46:00.218Z,82.64
2017-10-28T08:47:10.324Z,82.64
2017-10-28T08:48:19.800Z,82.73
2017-10-28T08:49:29.855Z,82.73
2017-10-28T08:50:39.265Z,82.54
2017-10-28T08:51:49.346Z,82.64
2017-10-28T08:52:59.832Z,82.73
2017-10-28T08:54:10.328Z,82.35
2017-10-28T08:55:20.344Z,82.54
2017-10-28T08:56:29.691Z,82.35
2017-10-28T08:57:39.704Z,81.88
2017-10-28T08:58:49.715Z,82.35
2017-10-28T08:59:59.062Z,82.26
2017-10-28T09:01:09.071Z,82.45
2017-10-28T09:02:19.089Z,82.45
2017-10-28T09:03:29.453Z,81.59
2017-10-28T09:04:39.129Z,82.54
2017-10-28T09:05:48.468Z,82.64
2017-10-28T09:06:58.484Z,82.45
2017-10-28T09:08:08.502Z,83.02
2017-10-28T09:09:18.519Z,83.55
2017-10-28T09:10:28.905Z,83.4
2017-10-28T09:11:38.920Z,83.26
2017-10-28T09:12:48.596Z,83.36
2017-10-28T09:13:58.972Z,83.45
2017-10-28T09:15:09.323Z,83.45
2017-10-28T09:16:19.348Z,83.31
2017-10-28T09:17:29.429Z,83.02
2017-10-28T09:18:39.885Z,82.92
2017-10-28T09:19:50.286Z,83.02
2017-10-28T09:21:00.327Z,82.83
2017-10-28T09:22:10.375Z,82.83
2017-10-28T09:23:20.741Z,82.45
2017-10-28T09:24:30.757Z,82.54
2017-10-28T09:25:39.776Z,82.64
2017-10-28T09:26:49.516Z,82.54
2017-10-28T09:27:59.537Z,82.73
2017-10-28T09:29:09.592Z,82.54
2017-10-28T09:30:19.715Z,82.35
2017-10-28T09:31:29.907Z,82.45
2017-10-28T09:32:40.246Z,82.54
2017-10-28T09:33:50.455Z,82.92
2017-10-28T09:34:59.567Z,82.73
2017-10-28T09:36:09.734Z,82.92
2017-10-28T09:37:19.858Z,82.35
2017-10-28T09:38:29.540Z,82.54
2017-10-28T09:39:39.585Z,82.17
2017-10-28T09:40:49.023Z,81.21
2017-10-28T09:41:59.045Z,81.12
2017-10-28T09:43:09.389Z,81.12
2017-10-28T09:44:19.407Z,81.3
2017-10-28T09:45:28.852Z,81.4
2017-10-28T09:46:37.861Z,81.3
2017-10-28T09:47:47.876Z,80.64
2017-10-28T09:48:57.558Z,80.54
2017-10-28T09:50:07.244Z,81.12
2017-10-28T09:51:17.264Z,80.83
2017-10-28T09:52:27.304Z,81.02
2017-10-28T09:53:37.314Z,80.44
2017-10-28T09:54:47.679Z,80.44
2017-10-28T09:55:58.030Z,81.21
2017-10-28T09:57:08.048Z,81.59
2017-10-28T09:58:18.402Z,81.88
2017-10-28T09:59:28.439Z,81.21
2017-10-28T10:00:38.448Z,81.3
2017-10-28T10:01:48.490Z,81.59
2017-10-28T10:02:58.515Z,81.02
2017-10-28T10:04:08.534Z,81.49
2017-10-28T10:05:18.229Z,82.17
2017-10-28T10:06:28.248Z,81.49
2017-10-28T10:07:37.925Z,81.59
2017-10-28T10:08:47.269Z,81.21
2017-10-28T10:09:57.289Z,81.59
2017-10-28T10:11:07.316Z,82.07
2017-10-28T10:12:17.335Z,82.45
2017-10-28T10:13:27.687Z,82.17
2017-10-28T10:14:37.702Z,81.59
2017-10-28T10:15:47.377Z,80.92
2017-10-28T10:16:57.762Z,80.54
2017-10-28T10:18:07.831Z,80.87
2017-10-28T10:19:17.536Z,80.49
2017-10-28T10:20:27.224Z,80.49
2017-10-28T10:21:36.900Z,80.96
2017-10-28T10:22:47.258Z,80.64
2017-10-28T10:23:57.621Z,81.49
2017-10-28T10:25:07.330Z,80.73
2017-10-28T10:26:17.015Z,80.87
2017-10-28T10:27:27.060Z,80.39
2017-10-28T10:28:36.761Z,80.77
2017-10-28T10:29:45.773Z,79.91
2017-10-28T10:30:55.456Z,79.63
2017-10-28T10:32:05.866Z,79.15
2017-10-28T10:33:15.911Z,79.25
2017-10-28T10:34:26.278Z,78.49
2017-10-28T10:35:36.626Z,79.06
2017-10-28T10:36:46.646Z,78.67
2017-10-28T10:37:55.992Z,78.96
2017-10-28T10:39:05.670Z,79.44
2017-10-28T10:40:15.364Z,79.53
2017-10-28T10:41:25.378Z,79.53
2017-10-28T10:42:35.064Z,79.44
2017-10-28T10:43:44.758Z,79.35
2017-10-28T10:44:54.114Z,79.35
2017-10-28T10:46:03.720Z,78.96
2017-10-28T10:47:13.731Z,79.44
2017-10-28T10:48:23.755Z,79.63
2017-10-28T10:49:33.782Z,79.72
2017-10-28T10:50:43.824Z,79.82
2017-10-28T10:51:53.856Z,80.2
2017-10-28T10:53:04.213Z,80.01
2017-10-28T10:54:13.935Z,80.01
2017-10-28T10:55:23.957Z,79.63
2017-10-28T10:56:33.302Z,79.35
2017-10-28T10:57:42.659Z,78.86
2017-10-28T10:58:53.458Z,79.15
2017-10-28T11:00:03.150Z,78.86
2017-10-28T11:01:13.220Z,78.1
2017-10-28T11:02:23.621Z,78.1
2017-10-28T11:03:33.639Z,78.23
2017-10-28T11:04:43.644Z,78.49
2017-10-28T11:05:53.995Z,78.49
2017-10-28T11:07:03.450Z,78.67
2017-10-28T11:08:12.817Z,78.49
2017-10-28T11:09:22.587Z,78.67
2017-10-28T11:10:31.270Z,78.62
2017-10-28T11:11:40.948Z,77.95
2017-10-28T11:12:50.965Z,78.33
2017-10-28T11:14:00.644Z,77.95
2017-10-28T11:15:10.660Z,78.05
2017-10-28T11:16:20.681Z,78.33
2017-10-28T11:17:30.402Z,77.86
2017-10-28T11:18:40.082Z,77.19
2017-10-28T11:19:50.164Z,77.86
2017-10-28T11:20:59.867Z,78.14
2017-10-28T11:22:09.565Z,78.14
2017-10-28T11:23:19.586Z,78.33
2017-10-28T11:24:29.264Z,78.33
2017-10-28T11:25:39.282Z,78.05
2017-10-28T11:26:49.305Z,78.33
2017-10-28T11:27:59.321Z,77.95
2017-10-28T11:29:09.001Z,77.86
2017-10-28T11:30:18.683Z,78.33
2017-10-28T11:31:29.033Z,78.81
2017-10-28T11:32:39.048Z,78.43
2017-10-28T11:33:48.727Z,78.33
2017-10-28T11:34:58.417Z,77.76
2017-10-28T11:36:08.121Z,77.28
2017-10-28T11:37:18.268Z,77.67
2017-10-28T11:38:27.620Z,77.76
2017-10-28T11:39:36.999Z,77.19
2017-10-28T11:40:46.009Z,78.23
2017-10-28T11:41:56.364Z,78.72
2017-10-28T11:43:06.059Z,79.1
2017-10-28T11:44:15.744Z,79.1
2017-10-28T11:45:25.090Z,79
2017-10-28T11:46:35.114Z,78.72
2017-10-28T11:47:44.800Z,78.62
2017-10-28T11:48:54.482Z,78.91
2017-10-28T11:50:04.188Z,78.43
2017-10-28T11:51:13.209Z,78.43
2017-10-28T11:52:22.885Z,78.62
2017-10-28T11:53:32.570Z,78.14
2017-10-28T11:54:41.915Z,78.81
2017-10-28T11:55:51.942Z,78.14
2017-10-28T11:57:01.629Z,78.52
2017-10-28T11:58:11.706Z,77.19
2017-10-28T11:59:21.718Z,77.8
2017-10-28T12:00:31.067Z,77.28
2017-10-28T12:01:41.089Z,77.76
2017-10-28T12:02:50.771Z,77.28
2017-10-28T12:04:00.883Z,77.23
2017-10-28T12:05:11.047Z,77.47
2017-10-28T12:06:21.437Z,77.67
2017-10-28T12:07:31.471Z,78.33
2017-10-28T12:08:41.850Z,78.52
2017-10-28T12:09:51.198Z,78.43
2017-10-28T12:11:01.554Z,78.62
2017-10-28T12:12:11.592Z,78.81
2017-10-28T12:13:21.267Z,78.91
2017-10-28T12:14:30.975Z,79.19
2017-10-28T12:15:41.026Z,78.52
2017-10-28T12:16:50.039Z,78.33
2017-10-28T12:18:00.400Z,78.33
2017-10-28T12:19:10.416Z,78.14
2017-10-28T12:20:20.106Z,78.05
2017-10-28T12:21:30.119Z,77
2017-10-28T12:22:40.144Z,76.65
2017-10-28T12:23:49.834Z,75.79
2017-10-28T12:24:59.521Z,75.89
2017-10-28T12:26:09.546Z,76.21
2017-10-28T12:27:19.574Z,76.75
2017-10-28T12:28:29.252Z,76.37
2017-10-28T12:29:38.596Z,75.93
2017-10-28T12:30:48.297Z,75.7
2017-10-28T12:31:58.328Z,76.18
2017-10-28T12:33:08.056Z,75.89
2017-10-28T12:34:18.073Z,75.89
2017-10-28T12:35:28.086Z,75.7
2017-10-28T12:36:38.101Z,76.56
2017-10-28T12:37:47.445Z,76.75
2017-10-28T12:38:57.133Z,76.37
2017-10-28T12:40:07.288Z,75.89
2017-10-28T12:41:17.667Z,75.98
2017-10-28T12:42:27.747Z,76.75
2017-10-28T12:43:37.163Z,75.98
2017-10-28T12:44:46.941Z,76.56
2017-10-28T12:45:56.628Z,77.03
2017-10-28T12:47:05.986Z,76.65
2017-10-28T12:48:15.668Z,76.94
2017-10-28T12:49:25.692Z,76.46
2017-10-28T12:50:34.790Z,76.65
2017-10-28T12:51:44.944Z,75.98
2017-10-28T12:52:54.392Z,76.21
2017-10-28T12:54:04.799Z,76.27
2017-10-28T12:55:14.176Z,75.89
2017-10-28T12:56:24.579Z,76.18
2017-10-28T12:57:34.662Z,75.89
2017-10-28T12:58:44.446Z,75.98
2017-10-28T12:59:53.792Z,75.45
2017-10-28T13:01:03.534Z,74.88
2017-10-28T13:02:14.093Z,75.07
2017-10-28T13:03:24.320Z,74.4
2017-10-28T13:04:34.137Z,74.3
2017-10-28T13:05:43.548Z,74.49
2017-10-28T13:06:52.982Z,74.88
2017-10-28T13:08:02.723Z,75.07
2017-10-28T13:09:13.003Z,75.45
2017-10-28T13:10:23.042Z,75.74
2017-10-28T13:11:32.838Z,75.64
2017-10-28T13:12:42.698Z,75.74
2017-10-28T13:13:52.730Z,76.08
2017-10-28T13:15:02.822Z,75.83
2017-10-28T13:16:12.975Z,76.56
2017-10-28T13:17:22.790Z,76.56
2017-10-28T13:18:32.214Z,76.56
2017-10-28T13:19:41.622Z,76.75
2017-10-28T13:20:51.790Z,76.94
2017-10-28T13:22:01.569Z,76.65
2017-10-28T13:23:11.739Z,76.94
2017-10-28T13:24:21.118Z,77.03
2017-10-28T13:25:30.883Z,76.84
2017-10-28T13:26:41.026Z,76.46
2017-10-28T13:27:50.807Z,76.46
2017-10-28T13:29:00.312Z,77.03
2017-10-28T13:30:10.773Z,76.65
2017-10-28T13:31:20.521Z,76.5
2017-10-28T13:32:30.886Z,76.84
2017-10-28T13:33:40.705Z,76.84
2017-10-28T13:34:50.753Z,77.13
2017-10-28T13:36:01.113Z,77.42
2017-10-28T13:37:10.790Z,77.23
2017-10-28T13:38:21.142Z,76.75
2017-10-28T13:39:31.157Z,76.69
2017-10-28T13:40:41.213Z,75.79
2017-10-28T13:41:51.291Z,76.12
2017-10-28T13:43:01.340Z,76.21
2017-10-28T13:44:11.770Z,76.18
2017-10-28T13:45:21.577Z,76.5
2017-10-28T13:46:31.712Z,76.37
2017-10-28T13:47:41.192Z,76.37
2017-10-28T13:48:50.942Z,76.94
2017-10-28T13:50:00.707Z,77.32
2017-10-28T13:51:11.114Z,77.13
2017-10-28T13:52:20.573Z,76.6
2017-10-28T13:53:29.979Z,76.69
2017-10-28T13:54:40.013Z,75.93
2017-10-28T13:55:49.742Z,76.03
2017-10-28T13:56:59.507Z,75.93
2017-10-28T13:58:09.307Z,76.5
2017-10-28T13:59:18.807Z,76.12
2017-10-28T14:00:28.619Z,76.31
2017-10-28T14:01:39.060Z,76.21
2017-10-28T14:02:49.184Z,75.93
2017-10-28T14:03:58.961Z,76.03
2017-10-28T14:05:09.410Z,76.84
2017-10-28T14:06:19.530Z,76.6
2017-10-28T14:07:29.256Z,76.5
2017-10-28T14:08:39.396Z,76.5
2017-10-28T14:09:49.491Z,76.5
2017-10-28T14:10:59.585Z,75.83
2017-10-28T14:12:10.033Z,76.21
2017-10-28T14:13:20.392Z,76.21
2017-10-28T14:14:29.834Z,76.6
2017-10-28T14:15:39.368Z,76.4
2017-10-28T14:16:50.159Z,76.88
2017-10-28T14:18:00.010Z,77.36
2017-10-28T14:19:10.070Z,77.23
2017-10-28T14:20:19.462Z,77.74
2017-10-28T14:21:29.991Z,77.7
2017-10-28T14:22:39.674Z,78.18
2017-10-28T14:23:48.737Z,78.28
2017-10-28T14:24:58.215Z,78.37
2017-10-28T14:26:08.007Z,78.28
2017-10-28T14:27:17.468Z,78.47
2017-10-28T14:28:27.208Z,78.94
2017-10-28T14:29:37.443Z,79.04
2017-10-28T14:30:47.549Z,78.94
2017-10-28T14:31:57.596Z,79.71
2017-10-28T14:33:06.794Z,79.43
2017-10-28T14:34:16.942Z,80.15
2017-10-28T14:35:27.399Z,80.15
2017-10-28T14:36:37.079Z,81.01
2017-10-28T14:37:46.774Z,80.53
2017-10-28T14:38:55.908Z,81.58
2017-10-28T14:40:06.412Z,82.15
2017-10-28T14:41:16.956Z,82.43
2017-10-28T14:42:26.519Z,82.63
2017-10-28T14:43:36.068Z,82.63
2017-10-28T14:44:45.964Z,82.63
2017-10-28T14:45:55.814Z,83.58
2017-10-28T14:47:06.015Z,84.92
2017-10-28T14:48:15.748Z,87.54
2017-10-28T14:49:25.136Z,87.07
2017-10-28T14:50:34.907Z,87.16
2017-10-28T14:51:45.026Z,87.74
2017-10-28T14:52:55.085Z,88.5
2017-10-28T14:54:04.764Z,88.88
2017-10-28T14:55:14.179Z,89.07
2017-10-28T14:56:24.717Z,88.98
2017-10-28T14:57:34.808Z,89.54
2017-10-28T14:58:43.859Z,89.64
2017-10-28T14:59:53.963Z,90.17
2017-10-28T15:01:03.756Z,90.55
2017-10-28T15:02:13.824Z,90.84
2017-10-28T15:03:23.896Z,91.5
2017-10-28T15:04:33.575Z,91.5
2017-10-28T15:05:43.270Z,92.08